Time;durP1;ratioP1;P1;durP2;ratioP2;P2;SDS_P1;SDS_P2;PMS_P1;PMS_P2;Temp;Humidity;BMP_temperature;BMP_pressure;BME280_temperature;BME280_humidity;BME280_pressure;Samples;Min_cycle;Max_cycle;Signal;HPM_P1;HPM_P2
2023/08/09 00:01:06;;;;;;;3.10;2.23;;;19.80;99.90;;;;;;5053805;28;20254;-71
2023/08/09 00:03:32;;;;;;;4.17;3.60;;;19.70;99.90;;;;;;5053568;28;20213;-70
2023/08/09 00:05:57;;;;;;;2.57;2.07;;;19.70;99.90;;;;;;5053235;28;20428;-70
2023/08/09 00:08:23;;;;;;;2.40;2.20;;;19.60;99.90;;;;;;5053771;28;20202;-70
2023/08/09 00:10:48;;;;;;;4.30;2.37;;;19.60;99.90;;;;;;5053593;28;20250;-70
2023/08/09 00:13:14;;;;;;;2.90;1.70;;;19.80;99.90;;;;;;5053496;28;20257;-71
2023/08/09 00:15:39;;;;;;;3.13;2.20;;;19.80;99.90;;;;;;5053168;28;20221;-70
2023/08/09 00:18:05;;;;;;;2.03;1.83;;;19.90;99.90;;;;;;5053558;28;20166;-70
2023/08/09 00:20:32;;;;;;;3.57;2.30;;;19.90;99.90;;;;;;5053375;28;20174;-70
2023/08/09 00:22:58;;;;;;;3.60;2.40;;;19.80;99.90;;;;;;5053402;28;20159;-70
2023/08/09 00:25:24;;;;;;;3.07;2.77;;;19.90;99.90;;;;;;5053008;28;20441;-69
2023/08/09 00:27:49;;;;;;;4.33;1.83;;;19.90;99.90;;;;;;5053578;28;20467;-70
2023/08/09 00:30:15;;;;;;;1.97;1.77;;;19.80;99.90;;;;;;5053360;28;20178;-70
2023/08/09 00:32:41;;;;;;;2.30;1.80;;;19.70;99.90;;;;;;5053035;28;20236;-71
2023/08/09 00:35:08;;;;;;;2.40;2.00;;;19.70;99.90;;;;;;5052852;28;20210;-71
2023/08/09 00:37:34;;;;;;;3.10;2.00;;;19.70;99.90;;;;;;5053517;28;20413;-71
2023/08/09 00:40:00;;;;;;;2.10;1.80;;;19.80;99.90;;;;;;5053488;28;20452;-70
2023/08/09 00:42:26;;;;;;;3.00;2.07;;;19.80;99.90;;;;;;5053244;28;20406;-71
2023/08/09 00:44:52;;;;;;;3.60;2.00;;;19.60;99.90;;;;;;5053097;28;20175;-70
2023/08/09 00:47:20;;;;;;;3.50;1.80;;;19.50;99.90;;;;;;5053345;28;20498;-71
2023/08/09 00:49:45;;;;;;;2.63;1.90;;;19.50;99.90;;;;;;5052786;28;20190;-70
2023/08/09 00:52:12;;;;;;;3.00;1.83;;;19.50;99.90;;;;;;5053119;28;20876;-70
2023/08/09 00:54:39;;;;;;;2.90;2.50;;;19.50;99.90;;;;;;5052863;28;20182;-71
2023/08/09 00:57:08;;;;;;;2.30;2.10;;;19.60;99.90;;;;;;5049055;28;20421;-68
2023/08/09 00:59:34;;;;;;;2.97;1.93;;;19.50;99.90;;;;;;5053389;28;20410;-70
2023/08/09 01:02:00;;;;;;;2.10;1.70;;;19.50;99.90;;;;;;5034986;28;20941;-71
2023/08/09 01:04:26;;;;;;;3.27;1.90;;;19.50;99.90;;;;;;5052651;28;20961;-71
2023/08/09 01:07:16;;;;;;;2.40;2.20;;;19.50;99.90;;;;;;5053093;28;20273;-70
2023/08/09 01:10:03;;;;;;;3.13;2.10;;;19.60;99.90;;;;;;5050412;28;20794;-71
2023/08/09 01:12:32;;;;;;;2.93;1.73;;;19.50;99.90;;;;;;5052886;28;20780;-70
2023/08/09 01:15:00;;;;;;;3.00;2.27;;;19.40;99.90;;;;;;5052462;28;20536;-70
2023/08/09 01:17:28;;;;;;;4.57;2.30;;;19.20;99.90;;;;;;5052740;28;20805;-72
2023/08/09 01:19:56;;;;;;;3.37;2.20;;;19.10;99.90;;;;;;5052067;28;20441;-70
2023/08/09 01:22:26;;;;;;;5.47;2.33;;;19.10;99.90;;;;;;5052402;28;20398;-71
2023/08/09 01:24:52;;;;;;;2.03;1.67;;;19.10;99.90;;;;;;5052330;28;20393;-71
2023/08/09 01:27:18;;;;;;;2.90;2.40;;;19.10;99.90;;;;;;5052648;28;20409;-71
2023/08/09 01:29:44;;;;;;;2.07;1.83;;;19.00;99.90;;;;;;5052760;28;20431;-70
2023/08/09 01:32:11;;;;;;;2.37;1.93;;;18.90;99.90;;;;;;5052914;28;20413;-69
2023/08/09 01:34:37;;;;;;;2.90;2.00;;;18.90;99.90;;;;;;5052349;28;20824;-68
2023/08/09 01:37:19;;;;;;;4.27;2.33;;;18.90;99.90;;;;;;5052599;28;20901;-69
2023/08/09 01:39:49;;;;;;;3.50;2.23;;;18.80;99.90;;;;;;5050003;28;20398;-68
2023/08/09 01:42:15;;;;;;;2.27;1.90;;;18.60;99.90;;;;;;5052233;28;20904;-69
2023/08/09 01:44:41;;;;;;;3.30;2.13;;;18.60;99.90;;;;;;5039296;28;20397;-70
2023/08/09 01:47:07;;;;;;;3.00;2.10;;;18.60;99.90;;;;;;5051972;28;20187;-70
2023/08/09 01:49:33;;;;;;;2.73;1.90;;;18.50;99.90;;;;;;5051998;28;20444;-70
2023/08/09 01:51:58;;;;;;;3.33;2.07;;;18.50;99.90;;;;;;5052096;28;20402;-69
2023/08/09 01:54:24;;;;;;;3.63;2.40;;;18.30;99.90;;;;;;5051777;28;20180;-69
2023/08/09 01:56:50;;;;;;;2.60;2.23;;;18.40;99.90;;;;;;5051546;28;20277;-71
2023/08/09 01:59:16;;;;;;;2.33;2.13;;;18.30;99.90;;;;;;5051153;28;20232;-69
2023/08/09 02:01:41;;;;;;;2.80;2.47;;;18.40;99.90;;;;;;5051721;28;20166;-70
2023/08/09 02:04:09;;;;;;;2.70;1.97;;;18.50;99.90;;;;;;5051187;28;20416;-70
2023/08/09 02:06:35;;;;;;;3.23;2.20;;;18.60;99.90;;;;;;5051018;28;20657;-69
2023/08/09 02:09:04;;;;;;;2.80;2.50;;;18.60;99.90;;;;;;5051741;28;20500;-69
2023/08/09 02:11:30;;;;;;;3.67;2.50;;;18.30;99.90;;;;;;5051619;28;20273;-68
2023/08/09 02:13:55;;;;;;;2.07;1.83;;;18.40;99.90;;;;;;5051434;28;20433;-69
2023/08/09 02:16:21;;;;;;;2.20;1.90;;;18.20;99.90;;;;;;5075883;22;20219;-70
2023/08/09 02:18:46;;;;;;;2.83;2.33;;;18.40;99.90;;;;;;5052128;28;20661;-70
2023/08/09 02:21:12;;;;;;;3.10;2.27;;;18.40;99.90;;;;;;5052421;28;20518;-69
2023/08/09 02:23:38;;;;;;;2.50;2.27;;;18.30;99.90;;;;;;5052466;28;20240;-70
2023/08/09 02:26:05;;;;;;;3.33;2.10;;;18.40;99.90;;;;;;5052376;28;20186;-70
2023/08/09 02:28:31;;;;;;;5.07;2.50;;;18.40;99.90;;;;;;5052147;28;20475;-70
2023/08/09 02:30:56;;;;;;;3.07;2.77;;;18.40;99.90;;;;;;5052222;28;20397;-71
2023/08/09 02:33:22;;;;;;;2.70;2.10;;;18.30;99.90;;;;;;5052325;28;20170;-71
2023/08/09 02:35:57;;;;;;;2.10;1.90;;;18.40;99.90;;;;;;5052131;28;20202;-70
2023/08/09 02:38:24;;;;;;;2.20;2.00;;;18.40;99.90;;;;;;5052387;28;20430;-70
2023/08/09 02:40:50;;;;;;;2.83;2.40;;;18.40;99.90;;;;;;5052492;28;20495;-70
2023/08/09 02:43:17;;;;;;;4.53;2.43;;;18.40;99.90;;;;;;5052128;28;20480;-71
2023/08/09 02:45:43;;;;;;;2.50;2.30;;;18.40;99.90;;;;;;5051939;28;20432;-71
2023/08/09 02:48:09;;;;;;;3.00;1.93;;;18.40;99.90;;;;;;5051741;28;20559;-69
2023/08/09 02:50:35;;;;;;;2.13;1.93;;;18.40;99.90;;;;;;5051941;28;20495;-71
2023/08/09 02:53:03;;;;;;;2.67;2.40;;;18.40;99.90;;;;;;5051853;28;20668;-69
2023/08/09 02:55:30;;;;;;;2.30;1.73;;;18.50;99.90;;;;;;5051799;28;20440;-69
2023/08/09 02:57:55;;;;;;;2.33;2.10;;;18.50;99.90;;;;;;5051585;28;20496;-70
2023/08/09 03:00:21;;;;;;;2.30;2.10;;;18.40;99.90;;;;;;5051753;28;20437;-69
2023/08/09 03:02:46;;;;;;;2.50;2.30;;;18.30;99.90;;;;;;5051770;28;20173;-71
2023/08/09 03:05:12;;;;;;;4.50;2.70;;;18.40;99.90;;;;;;5051698;28;20218;-71
2023/08/09 03:07:38;;;;;;;2.50;2.07;;;18.40;99.90;;;;;;5051848;28;20256;-69
2023/08/09 03:10:04;;;;;;;3.00;2.27;;;18.30;99.90;;;;;;5052108;28;20254;-70
2023/08/09 03:12:30;;;;;;;2.93;2.30;;;18.30;99.90;;;;;;5052131;28;20405;-70
2023/08/09 03:14:56;;;;;;;2.33;2.13;;;18.30;99.90;;;;;;5051611;28;20437;-71
2023/08/09 03:17:21;;;;;;;2.40;2.13;;;18.20;99.90;;;;;;5052055;28;20689;-71
2023/08/09 03:19:49;;;;;;;3.00;2.03;;;18.10;99.90;;;;;;5055056;28;20167;-71
2023/08/09 03:22:15;;;;;;;2.90;2.20;;;18.10;99.90;;;;;;5037332;28;20162;-71
2023/08/09 03:24:41;;;;;;;2.33;2.13;;;18.30;99.90;;;;;;5055255;28;20405;-71
2023/08/09 03:27:07;;;;;;;2.97;2.30;;;18.40;99.90;;;;;;5055094;28;20462;-70
2023/08/09 03:29:32;;;;;;;4.10;2.07;;;18.50;99.90;;;;;;5055111;28;20277;-70
2023/08/09 03:31:58;;;;;;;2.63;2.00;;;18.50;99.90;;;;;;5055472;28;20171;-70
2023/08/09 03:34:23;;;;;;;2.47;2.27;;;18.50;99.90;;;;;;5054738;28;20703;-70
2023/08/09 03:36:49;;;;;;;2.47;2.00;;;18.30;99.90;;;;;;5055070;28;20206;-69
2023/08/09 03:39:15;;;;;;;2.97;2.10;;;18.30;99.90;;;;;;5055063;28;20536;-70
2023/08/09 03:41:41;;;;;;;3.27;2.10;;;18.40;99.90;;;;;;5055117;28;20158;-70
2023/08/09 03:44:07;;;;;;;3.37;2.30;;;18.40;99.90;;;;;;5054764;28;20977;-71
2023/08/09 03:46:33;;;;;;;2.70;2.27;;;18.50;99.90;;;;;;5054981;28;20428;-70
2023/08/09 03:48:58;;;;;;;3.10;1.90;;;18.50;99.90;;;;;;5054741;28;20171;-71
2023/08/09 03:51:24;;;;;;;2.57;2.37;;;18.50;99.90;;;;;;5054915;28;20564;-69
2023/08/09 03:53:50;;;;;;;2.03;1.83;;;18.60;99.90;;;;;;5054980;28;20484;-70
2023/08/09 03:56:15;;;;;;;2.40;2.00;;;18.70;99.90;;;;;;5053928;28;20974;-70
2023/08/09 03:58:41;;;;;;;3.10;2.00;;;18.70;99.90;;;;;;5054259;28;20162;-70
2023/08/09 04:01:07;;;;;;;2.80;2.20;;;18.60;99.90;;;;;;5054467;28;20162;-70
2023/08/09 04:03:33;;;;;;;2.20;2.00;;;18.60;99.90;;;;;;5054383;28;20182;-69
2023/08/09 04:05:59;;;;;;;2.30;1.83;;;18.70;99.90;;;;;;5054266;28;20437;-70
2023/08/09 04:08:26;;;;;;;2.00;1.73;;;18.70;99.90;;;;;;5054399;28;20542;-69
2023/08/09 04:10:54;;;;;;;4.40;1.97;;;18.60;99.90;;;;;;5054490;28;20619;-72
2023/08/09 04:13:20;;;;;;;1.80;1.63;;;18.70;99.90;;;;;;5053769;28;20409;-69
2023/08/09 04:15:46;;;;;;;3.40;2.33;;;18.70;99.90;;;;;;5053852;28;20457;-69
2023/08/09 04:18:11;;;;;;;2.60;2.13;;;18.70;99.90;;;;;;5054201;28;20390;-71
2023/08/09 04:20:38;;;;;;;3.00;2.10;;;18.80;99.90;;;;;;5053857;28;20193;-70
2023/08/09 04:23:03;;;;;;;2.17;1.97;;;18.60;99.90;;;;;;5054351;28;20177;-69
2023/08/09 04:25:30;;;;;;;2.50;2.00;;;18.70;99.90;;;;;;5053899;28;20401;-70
2023/08/09 04:27:56;;;;;;;4.97;2.00;;;18.80;99.90;;;;;;5053999;28;20171;-70
2023/08/09 04:30:22;;;;;;;2.20;2.00;;;18.70;99.90;;;;;;5053563;28;20810;-69
2023/08/09 04:32:48;;;;;;;3.43;2.00;;;18.80;99.90;;;;;;5053852;28;20817;-71
2023/08/09 04:35:14;;;;;;;2.77;2.17;;;18.70;99.90;;;;;;5053287;28;20440;-69
2023/08/09 04:37:40;;;;;;;2.60;2.10;;;18.80;99.90;;;;;;5054023;28;20155;-70
2023/08/09 04:40:10;;;;;;;2.10;1.53;;;18.90;99.90;;;;;;5053868;28;20534;-71
2023/08/09 04:42:37;;;;;;;3.00;2.30;;;18.80;99.90;;;;;;5054214;28;20421;-70
2023/08/09 04:45:03;;;;;;;2.00;1.90;;;18.90;99.90;;;;;;5053552;28;20452;-69
2023/08/09 04:47:29;;;;;;;2.47;1.80;;;18.90;99.90;;;;;;5054035;28;20429;-70
2023/08/09 04:49:54;;;;;;;3.20;2.00;;;18.90;99.90;;;;;;5053840;28;20401;-71
2023/08/09 04:52:20;;;;;;;2.50;1.67;;;18.80;99.90;;;;;;5053620;28;20167;-69
2023/08/09 04:54:45;;;;;;;2.80;2.27;;;18.70;99.90;;;;;;5053880;28;20198;-70
2023/08/09 04:57:11;;;;;;;3.30;2.10;;;18.90;99.90;;;;;;5053362;28;20679;-69
2023/08/09 04:59:36;;;;;;;5.17;2.13;;;19.10;99.90;;;;;;5053326;28;20167;-70
2023/08/09 05:02:05;;;;;;;1.90;1.70;;;19.10;99.90;;;;;;5053557;28;20169;-70
2023/08/09 05:04:31;;;;;;;3.03;1.90;;;18.90;99.90;;;;;;5049085;28;20169;-69
2023/08/09 05:06:57;;;;;;;2.83;2.13;;;18.90;99.90;;;;;;5053182;28;20500;-69
2023/08/09 05:09:22;;;;;;;2.30;1.90;;;18.80;99.90;;;;;;5053650;28;20190;-70
2023/08/09 05:11:48;;;;;;;3.47;1.80;;;18.70;99.90;;;;;;5053358;28;20661;-69
2023/08/09 05:14:13;;;;;;;3.10;2.00;;;18.80;99.90;;;;;;5053219;28;20173;-71
2023/08/09 05:16:39;;;;;;;4.70;1.93;;;19.10;99.90;;;;;;5053217;28;20289;-70
2023/08/09 05:19:04;;;;;;;2.80;2.40;;;19.10;99.90;;;;;;5053227;28;20241;-70
2023/08/09 05:21:30;;;;;;;2.10;1.80;;;19.10;99.90;;;;;;5053192;28;20170;-69
2023/08/09 05:23:55;;;;;;;2.90;1.67;;;19.10;99.90;;;;;;5053112;28;20677;-69
2023/08/09 05:26:21;;;;;;;3.10;2.03;;;19.10;99.90;;;;;;5053055;28;20677;-71
2023/08/09 05:28:47;;;;;;;2.10;1.73;;;19.10;99.90;;;;;;5053107;28;20178;-71
2023/08/09 05:31:12;;;;;;;4.90;2.03;;;19.20;99.90;;;;;;5053004;28;20253;-70
2023/08/09 05:33:38;;;;;;;3.00;1.90;;;19.10;99.90;;;;;;5052646;28;20171;-69
2023/08/09 05:36:04;;;;;;;2.77;2.00;;;19.00;99.90;;;;;;5052603;28;20265;-70
2023/08/09 05:38:29;;;;;;;2.30;1.67;;;19.00;99.90;;;;;;5052612;28;20173;-69
2023/08/09 05:40:55;;;;;;;1.87;1.70;;;19.20;99.90;;;;;;5051728;28;20397;-70
2023/08/09 05:43:21;;;;;;;3.60;2.03;;;19.40;99.90;;;;;;5052634;28;20163;-69
2023/08/09 05:45:47;;;;;;;4.70;2.30;;;19.40;99.90;;;;;;5052831;28;20202;-70
2023/08/09 05:48:12;;;;;;;2.70;1.60;;;19.20;99.90;;;;;;5052547;28;20197;-70
2023/08/09 05:50:38;;;;;;;2.97;1.77;;;19.30;99.90;;;;;;5052349;28;20488;-69
2023/08/09 05:53:03;;;;;;;2.10;1.90;;;19.10;99.90;;;;;;5052528;28;20208;-71
2023/08/09 05:55:29;;;;;;;4.23;2.37;;;19.40;99.90;;;;;;5052160;28;20551;-70
2023/08/09 05:57:54;;;;;;;4.63;2.20;;;19.60;99.90;;;;;;5052598;28;20179;-70
2023/08/09 06:00:20;;;;;;;3.90;2.93;;;19.70;99.90;;;;;;5052551;28;20170;-69
2023/08/09 06:02:46;;;;;;;3.20;2.10;;;19.80;99.90;;;;;;5051858;28;20177;-69
2023/08/09 06:05:44;;;;;;;2.20;2.00;;;19.90;99.90;;;;;;5052192;28;20165;-70
2023/08/09 06:08:03;;;;;;;2.50;2.10;;;20.00;99.90;;;;;;5049254;28;20320;-69
2023/08/09 06:10:29;;;;;;;3.87;2.10;;;20.10;99.90;;;;;;5052557;28;20432;-70
2023/08/09 06:12:55;;;;;;;2.13;1.77;;;20.10;99.90;;;;;;5052569;28;20899;-71
2023/08/09 06:15:21;;;;;;;3.10;1.80;;;19.90;99.90;;;;;;5051825;28;20178;-69
2023/08/09 06:17:47;;;;;;;1.87;1.73;;;20.00;99.90;;;;;;5052530;28;20159;-70
2023/08/09 06:20:13;;;;;;;2.30;1.70;;;19.70;99.90;;;;;;5052010;28;20412;-69
2023/08/09 06:22:40;;;;;;;1.83;1.60;;;19.60;99.90;;;;;;5052214;28;20927;-69
2023/08/09 06:25:09;;;;;;;1.50;1.40;;;19.70;99.90;;;;;;5052078;28;20167;-69
2023/08/09 06:27:35;;;;;;;3.47;2.10;;;19.90;99.90;;;;;;5051868;28;20436;-70
2023/08/09 06:30:01;;;;;;;2.47;1.87;;;19.60;99.90;;;;;;5051809;28;20409;-70
2023/08/09 06:32:28;;;;;;;2.90;1.97;;;19.70;99.90;;;;;;5051605;28;20420;-71
2023/08/09 06:34:53;;;;;;;3.57;1.70;;;19.70;99.90;;;;;;5051657;28;20178;-69
2023/08/09 06:37:19;;;;;;;12.27;2.60;;;19.80;99.90;;;;;;5051907;28;20962;-70
2023/08/09 06:39:44;;;;;;;2.87;2.00;;;19.90;99.90;;;;;;5052009;28;20213;-70
2023/08/09 06:42:12;;;;;;;2.50;1.90;;;20.00;99.90;;;;;;5052020;28;20163;-70
2023/08/09 06:44:38;;;;;;;3.10;1.87;;;19.90;99.90;;;;;;5052173;28;20159;-69
2023/08/09 06:47:04;;;;;;;5.70;2.50;;;20.10;99.90;;;;;;5052166;28;20433;-70
2023/08/09 06:49:29;;;;;;;2.57;1.97;;;20.10;99.90;;;;;;5051626;28;20790;-70
2023/08/09 06:51:55;;;;;;;4.33;1.63;;;20.00;99.90;;;;;;5034109;28;20204;-69
2023/08/09 06:54:20;;;;;;;4.00;2.20;;;20.00;99.90;;;;;;5055874;28;20159;-69
2023/08/09 06:56:46;;;;;;;5.93;2.37;;;20.20;99.90;;;;;;5055558;28;20572;-70
2023/08/09 06:59:11;;;;;;;4.77;1.83;;;20.50;99.90;;;;;;5055622;28;20158;-70
2023/08/09 07:01:37;;;;;;;3.33;1.43;;;20.50;99.90;;;;;;5056709;28;20321;-71
2023/08/09 07:04:03;;;;;;;6.13;1.83;;;20.80;99.90;;;;;;5055636;28;20198;-70
2023/08/09 07:06:28;;;;;;;2.60;2.10;;;21.10;99.90;;;;;;5055661;28;20565;-70
2023/08/09 07:08:54;;;;;;;2.20;1.40;;;21.10;99.90;;;;;;5056127;28;20178;-71
2023/08/09 07:11:21;;;;;;;6.30;1.87;;;20.70;99.90;;;;;;5055932;28;20196;-70
2023/08/09 07:13:47;;;;;;;2.60;2.30;;;20.50;99.90;;;;;;5055771;28;20431;-70
2023/08/09 07:16:12;;;;;;;2.57;1.83;;;20.50;99.90;;;;;;5037364;28;20998;-70
2023/08/09 07:18:38;;;;;;;2.20;1.67;;;20.50;99.90;;;;;;5055520;28;20672;-70
2023/08/09 07:21:04;;;;;;;3.90;2.03;;;20.50;99.90;;;;;;5055328;28;20254;-69
2023/08/09 07:23:30;;;;;;;2.93;2.10;;;20.40;99.90;;;;;;5055655;28;20162;-70
2023/08/09 07:25:56;;;;;;;2.70;1.80;;;20.30;99.90;;;;;;5054649;28;20441;-72
2023/08/09 07:28:21;;;;;;;2.33;2.00;;;20.40;99.90;;;;;;5055440;28;20162;-69
2023/08/09 07:30:50;;;;;;;3.40;2.17;;;20.50;99.90;;;;;;5055002;28;20159;-70
2023/08/09 07:33:16;;;;;;;3.23;2.30;;;20.70;99.90;;;;;;5055189;28;20404;-70
2023/08/09 07:35:42;;;;;;;5.30;2.07;;;20.70;99.90;;;;;;5055482;28;20448;-71
2023/08/09 07:38:07;;;;;;;3.07;2.30;;;20.60;99.90;;;;;;5055233;28;20926;-70
2023/08/09 07:40:33;;;;;;;2.77;2.10;;;20.80;99.90;;;;;;5055097;28;20166;-69
2023/08/09 07:43:00;;;;;;;5.30;2.30;;;20.80;99.90;;;;;;5055420;28;20159;-70
2023/08/09 07:45:25;;;;;;;4.20;2.57;;;20.90;99.90;;;;;;5054863;28;20174;-69
2023/08/09 07:47:51;;;;;;;5.13;2.30;;;21.00;99.90;;;;;;5054951;28;20939;-70
2023/08/09 07:50:17;;;;;;;2.73;2.40;;;21.10;99.90;;;;;;5054807;28;20178;-70
2023/08/09 07:52:42;;;;;;;2.33;2.00;;;21.10;99.90;;;;;;5054839;28;20175;-69
2023/08/09 07:55:08;;;;;;;3.43;1.80;;;21.10;99.90;;;;;;5054680;28;20210;-70
2023/08/09 07:57:34;;;;;;;2.47;1.97;;;21.00;99.90;;;;;;5054577;28;20190;-71
2023/08/09 08:00:06;;;;;;;3.73;2.60;;;21.10;99.90;;;;;;5054666;28;20401;-70
2023/08/09 08:02:31;;;;;;;3.60;2.50;;;21.10;99.90;;;;;;5053973;28;20663;-68
2023/08/09 08:04:57;;;;;;;3.10;2.17;;;21.30;99.90;;;;;;5053365;28;20402;-70
2023/08/09 08:07:23;;;;;;;3.10;2.10;;;21.30;99.90;;;;;;5053890;28;20392;-68
2023/08/09 08:09:49;;;;;;;2.80;2.10;;;21.20;99.90;;;;;;5054857;28;20637;-70
2023/08/09 08:12:15;;;;;;;3.30;1.93;;;21.30;99.90;;;;;;5054714;28;20769;-70
2023/08/09 08:14:40;;;;;;;2.40;1.83;;;21.20;99.90;;;;;;5036166;28;20401;-70
2023/08/09 08:17:06;;;;;;;2.90;2.17;;;21.30;99.90;;;;;;5078839;22;20229;-70
2023/08/09 08:19:31;;;;;;;3.47;2.37;;;21.00;99.90;;;;;;5054367;28;20182;-68
2023/08/09 08:21:57;;;;;;;1.93;1.73;;;21.10;99.90;;;;;;5054294;28;20166;-69
2023/08/09 08:24:24;;;;;;;2.57;2.37;;;20.90;99.90;;;;;;5054549;28;20213;-69
2023/08/09 08:26:53;;;;;;;3.60;2.37;;;21.00;99.90;;;;;;5054568;28;20190;-68
2023/08/09 08:29:19;;;;;;;2.30;1.90;;;21.00;99.90;;;;;;5053487;28;20417;-68
2023/08/09 08:31:44;;;;;;;4.03;2.23;;;21.30;99.90;;;;;;5054365;28;20492;-69
2023/08/09 08:34:10;;;;;;;3.47;1.70;;;21.40;99.90;;;;;;5054045;28;20276;-69
2023/08/09 08:36:35;;;;;;;3.23;2.67;;;21.40;99.90;;;;;;5054104;28;20599;-69
2023/08/09 08:39:05;;;;;;;2.43;1.83;;;21.20;99.90;;;;;;5036270;28;20634;-69
2023/08/09 08:41:31;;;;;;;5.50;1.80;;;21.30;99.90;;;;;;5054190;28;20680;-69
2023/08/09 08:43:56;;;;;;;4.30;2.20;;;21.20;99.90;;;;;;5053935;28;20409;-69
2023/08/09 08:46:26;;;;;;;4.27;2.00;;;21.20;99.90;;;;;;5054040;28;20194;-69
2023/08/09 08:48:55;;;;;;;4.17;2.33;;;21.30;99.90;;;;;;5054595;28;20181;-70
2023/08/09 08:51:25;;;;;;;2.70;2.20;;;21.10;99.90;;;;;;5053709;28;20938;-70
2023/08/09 08:53:50;;;;;;;2.40;2.07;;;21.10;99.90;;;;;;5049828;28;20488;-70
2023/08/09 08:56:16;;;;;;;2.27;2.07;;;21.00;99.90;;;;;;5053845;28;20448;-70
2023/08/09 08:58:42;;;;;;;5.47;2.33;;;20.80;99.90;;;;;;5053976;28;20611;-70
2023/08/09 09:01:09;;;;;;;2.60;2.37;;;20.80;99.90;;;;;;5053922;28;20249;-70
2023/08/09 09:03:35;;;;;;;3.23;1.80;;;20.80;99.90;;;;;;5054187;28;20186;-70
2023/08/09 09:06:01;;;;;;;3.37;1.77;;;20.80;99.90;;;;;;5053725;28;20436;-70
2023/08/09 09:08:26;;;;;;;2.50;2.30;;;20.90;99.90;;;;;;5054418;28;20492;-71
2023/08/09 09:10:54;;;;;;;4.93;2.63;;;20.90;99.90;;;;;;5054151;28;20209;-70
2023/08/09 09:13:26;;;;;;;3.20;1.90;;;20.90;99.90;;;;;;5054158;28;20571;-70
2023/08/09 09:15:54;;;;;;;5.73;2.50;;;20.90;99.90;;;;;;5054015;28;20448;-68
2023/08/09 09:18:21;;;;;;;3.83;2.60;;;21.20;99.90;;;;;;5054253;28;20424;-72
2023/08/09 09:20:46;;;;;;;2.97;2.20;;;21.50;99.90;;;;;;5053973;28;20434;-70
2023/08/09 09:23:27;;;;;;;3.10;2.47;;;21.40;99.90;;;;;;5053864;28;20410;-70
2023/08/09 09:26:25;;;;;;;5.77;2.13;;;21.50;99.90;;;;;;5053088;28;20239;-69
2023/08/09 09:28:51;;;;;;;2.23;2.03;;;21.30;99.90;;;;;;5013820;28;20950;-69
2023/08/09 09:31:20;;;;;;;3.37;2.37;;;21.10;99.90;;;;;;5053033;28;20409;-69
2023/08/09 09:33:49;;;;;;;3.23;2.03;;;21.00;99.90;;;;;;5053195;28;20178;-69
2023/08/09 09:36:17;;;;;;;2.67;2.33;;;20.90;99.90;;;;;;5052589;28;20865;-69
2023/08/09 09:38:44;;;;;;;5.70;2.17;;;21.00;99.90;;;;;;5053397;28;20414;-69
2023/08/09 09:41:10;;;;;;;2.60;1.93;;;21.20;99.90;;;;;;5053072;28;20412;-69
2023/08/09 09:43:46;;;;;;;6.47;2.30;;;21.40;99.90;;;;;;5052948;28;20413;-70
2023/08/09 09:46:18;;;;;;;5.33;2.17;;;21.40;99.90;;;;;;5049495;28;20413;-70
2023/08/09 09:48:49;;;;;;;4.07;2.43;;;21.20;99.90;;;;;;5049499;28;20790;-70
2023/08/09 09:51:17;;;;;;;3.50;2.40;;;21.20;99.90;;;;;;5052972;28;20412;-69
2023/08/09 09:53:44;;;;;;;4.23;1.83;;;21.30;99.90;;;;;;5052352;28;20898;-68
2023/08/09 09:56:11;;;;;;;2.93;2.30;;;21.40;99.90;;;;;;5052928;28;20564;-69
2023/08/09 09:58:37;;;;;;;3.43;2.30;;;21.40;99.90;;;;;;5052925;28;20767;-69
2023/08/09 10:01:06;;;;;;;1.90;1.70;;;21.50;99.90;;;;;;5053192;28;20488;-69
2023/08/09 10:03:33;;;;;;;3.67;2.53;;;21.60;99.90;;;;;;5053122;28;20167;-69
2023/08/09 10:05:59;;;;;;;4.00;2.60;;;21.50;99.90;;;;;;5052636;28;20475;-69
2023/08/09 10:08:27;;;;;;;3.80;2.60;;;21.30;99.90;;;;;;5052617;28;20440;-69
2023/08/09 10:10:55;;;;;;;4.70;2.40;;;21.50;99.90;;;;;;5052081;28;20413;-68
2023/08/09 10:13:22;;;;;;;2.60;2.30;;;21.50;99.90;;;;;;5052004;28;20444;-69
2023/08/09 10:15:53;;;;;;;4.40;3.97;;;21.40;99.90;;;;;;5052119;28;20436;-69
2023/08/09 10:18:29;;;;;;;5.60;2.70;;;21.40;99.90;;;;;;5052819;28;20452;-68
2023/08/09 10:20:57;;;;;;;3.40;2.00;;;21.40;99.90;;;;;;5049092;28;20389;-69
2023/08/09 10:23:30;;;;;;;3.03;2.50;;;21.50;99.90;;;;;;5048413;28;20428;-69
2023/08/09 10:25:57;;;;;;;3.03;2.10;;;21.60;99.90;;;;;;5034368;28;20429;-69
2023/08/09 10:28:42;;;;;;;3.50;2.43;;;21.60;99.90;;;;;;5051880;28;20775;-69
2023/08/09 10:31:07;;;;;;;4.20;2.60;;;21.80;99.90;;;;;;5052668;28;20405;-68
2023/08/09 10:33:33;;;;;;;5.67;2.00;;;21.80;99.90;;;;;;5052344;28;20463;-70
2023/08/09 10:35:59;;;;;;;4.90;2.53;;;21.80;99.90;;;;;;5051780;28;20252;-70
2023/08/09 10:38:40;;;;;;;4.43;1.87;;;21.50;99.90;;;;;;5052912;28;20420;-69
2023/08/09 10:41:10;;;;;;;4.63;2.50;;;21.20;99.90;;;;;;5049363;28;20209;-70
2023/08/09 10:43:36;;;;;;;2.70;2.30;;;20.90;99.90;;;;;;5030214;28;20451;-70
2023/08/09 10:46:24;;;;;;;5.17;2.23;;;20.90;99.90;;;;;;5052357;28;20429;-71
2023/08/09 10:48:54;;;;;;;5.07;2.83;;;21.10;99.90;;;;;;5048863;28;20167;-69
2023/08/09 10:51:21;;;;;;;6.37;2.73;;;21.30;99.90;;;;;;5034974;28;20405;-70
2023/08/09 10:53:59;;;;;;;7.30;2.60;;;21.50;99.90;;;;;;5053032;28;20492;-70
2023/08/09 10:56:42;;;;;;;3.57;2.20;;;21.60;99.90;;;;;;5052667;28;20445;-70
2023/08/09 10:59:12;;;;;;;5.80;2.73;;;21.60;99.90;;;;;;5048717;28;20423;-70
2023/08/09 11:01:38;;;;;;;5.03;2.07;;;21.80;99.90;;;;;;5052663;28;20409;-69
2023/08/09 11:04:06;;;;;;;3.73;1.83;;;21.70;99.90;;;;;;5051701;28;20793;-69
2023/08/09 11:06:34;;;;;;;2.77;1.70;;;21.80;99.90;;;;;;5051901;28;20487;-70
2023/08/09 11:09:11;;;;;;;2.57;2.10;;;22.10;99.90;;;;;;5052178;28;20492;-69
2023/08/09 11:11:37;;;;;;;8.33;2.37;;;22.30;99.90;;;;;;5048933;28;20818;-68
2023/08/09 11:14:03;;;;;;;5.93;1.80;;;22.10;99.90;;;;;;5051670;28;20401;-68
2023/08/09 11:16:29;;;;;;;3.73;2.40;;;21.90;99.90;;;;;;5051705;28;20475;-69
2023/08/09 11:19:10;;;;;;;5.33;2.07;;;21.70;99.90;;;;;;5051929;28;20405;-69
2023/08/09 11:21:46;;;;;;;4.97;2.33;;;21.70;99.90;;;;;;5049688;28;20430;-69
2023/08/09 11:24:13;;;;;;;2.73;1.90;;;21.60;99.90;;;;;;5052249;28;20385;-69
2023/08/09 11:26:50;;;;;;;3.70;2.10;;;21.90;99.90;;;;;;5051770;28;20595;-69
2023/08/09 11:29:20;;;;;;;2.87;2.00;;;22.00;99.90;;;;;;5048503;28;20397;-69
2023/08/09 11:31:51;;;;;;;3.17;2.20;;;22.40;99.90;;;;;;5048147;28;20398;-70
2023/08/09 11:34:19;;;;;;;3.53;2.27;;;22.80;99.90;;;;;;5051671;28;20406;-69
2023/08/09 11:36:46;;;;;;;7.90;2.60;;;23.20;99.90;;;;;;5051328;28;20475;-69
2023/08/09 11:39:13;;;;;;;2.53;2.03;;;23.30;99.90;;;;;;5052129;28;20401;-70
2023/08/09 11:41:40;;;;;;;3.60;2.17;;;23.30;99.90;;;;;;5055808;28;20409;-69
2023/08/09 11:44:06;;;;;;;2.70;2.20;;;23.60;99.90;;;;;;5054866;28;20397;-69
2023/08/09 11:46:32;;;;;;;4.40;2.03;;;23.50;99.90;;;;;;5055130;28;20536;-69
2023/08/09 11:49:02;;;;;;;3.50;2.00;;;23.60;99.90;;;;;;5055192;28;20178;-70
2023/08/09 11:51:33;;;;;;;4.07;2.23;;;23.10;99.90;;;;;;5051512;28;20193;-69
2023/08/09 11:53:59;;;;;;;4.80;2.30;;;22.80;99.90;;;;;;5051307;28;20394;-69
2023/08/09 11:56:34;;;;;;;3.47;2.07;;;23.10;99.90;;;;;;5055147;28;20460;-69
2023/08/09 11:59:01;;;;;;;2.03;1.70;;;23.50;99.90;;;;;;5054964;28;20154;-68
2023/08/09 12:01:30;;;;;;;4.43;2.33;;;23.30;99.90;;;;;;5054935;28;20401;-69
2023/08/09 12:03:58;;;;;;;3.03;2.20;;;23.10;99.90;;;;;;5054815;28;20409;-69
2023/08/09 12:06:40;;;;;;;2.60;1.70;;;23.30;99.90;;;;;;5054842;28;20813;-68
2023/08/09 12:09:37;;;;;;;2.93;2.40;;;23.50;99.90;;;;;;5051452;28;20535;-69
2023/08/09 12:12:11;;;;;;;4.33;2.33;;;24.00;99.90;;;;;;5054556;28;20481;-70
2023/08/09 12:14:39;;;;;;;4.47;2.40;;;24.10;99.90;;;;;;5054700;28;20478;-70
2023/08/09 12:17:05;;;;;;;3.63;2.30;;;24.10;99.90;;;;;;5054510;28;20437;-69
2023/08/09 12:19:31;;;;;;;3.13;2.20;;;24.20;99.90;;;;;;5036748;28;20471;-70
2023/08/09 12:21:59;;;;;;;4.73;2.20;;;23.80;99.90;;;;;;5054478;28;20908;-69
2023/08/09 12:24:25;;;;;;;3.47;2.00;;;23.60;99.90;;;;;;5054511;28;20421;-69
2023/08/09 12:26:51;;;;;;;2.63;2.43;;;23.30;99.90;;;;;;5054342;28;20424;-70
2023/08/09 12:29:16;;;;;;;2.97;2.23;;;23.10;99.90;;;;;;5054286;28;20406;-69
2023/08/09 12:31:42;;;;;;;3.60;2.20;;;23.20;99.90;;;;;;5054439;28;20175;-69
2023/08/09 12:34:10;;;;;;;2.43;2.07;;;23.10;99.90;;;;;;5054336;28;20251;-69
2023/08/09 12:36:36;;;;;;;3.03;1.97;;;23.20;99.90;;;;;;5053850;28;20194;-70
2023/08/09 12:39:01;;;;;;;2.97;2.13;;;23.00;99.90;;;;;;5054352;28;20401;-69
2023/08/09 12:41:27;;;;;;;5.53;2.33;;;23.10;99.90;;;;;;5054257;28;20170;-69
2023/08/09 12:43:52;;;;;;;2.70;2.20;;;23.10;99.90;;;;;;5054102;28;20163;-69
2023/08/09 12:46:18;;;;;;;5.97;2.50;;;23.20;99.90;;;;;;5054143;28;20210;-70
2023/08/09 12:48:46;;;;;;;3.03;2.33;;;23.20;99.90;;;;;;5054192;28;20570;-70